createdAt,value
2019-05-04T00:02:02.812Z,3.13
2019-05-04T00:04:38.894Z,2.60
2019-05-04T00:07:07.334Z,2.60
2019-05-04T00:09:35.855Z,2.43
2019-05-04T00:12:04.852Z,4.13
2019-05-04T00:14:35.037Z,3.30
2019-05-04T00:17:05.342Z,3.07
2019-05-04T00:19:35.127Z,2.80
2019-05-04T00:22:04.899Z,2.90
2019-05-04T00:24:35.151Z,3.37
2019-05-04T00:27:05.055Z,3.13
2019-05-04T00:29:35.301Z,2.70
2019-05-04T00:32:05.486Z,2.60
2019-05-04T00:34:35.553Z,2.30
2019-05-04T00:37:08.540Z,2.67
2019-05-04T00:39:37.426Z,2.00
2019-05-04T00:42:06.447Z,2.40
2019-05-04T00:44:35.429Z,2.47
2019-05-04T00:47:05.106Z,2.63
2019-05-04T00:49:34.791Z,2.50
2019-05-04T00:52:05.518Z,2.70
2019-05-04T00:54:35.377Z,2.70
2019-05-04T00:57:05.130Z,3.07
2019-05-04T00:59:35.106Z,2.53
2019-05-04T01:02:05.917Z,2.70
2019-05-04T01:04:35.599Z,2.50
2019-05-04T01:07:16.961Z,3.00
2019-05-04T01:09:36.019Z,2.83
2019-05-04T01:12:05.389Z,2.80
2019-05-04T01:14:34.862Z,3.37
2019-05-04T01:17:05.461Z,1.90
2019-05-04T01:19:35.652Z,1.70
2019-05-04T01:22:05.014Z,2.53
2019-05-04T01:24:34.733Z,2.70
2019-05-04T01:27:05.652Z,2.77
2019-05-04T01:29:35.540Z,1.87
2019-05-04T01:32:05.104Z,2.80
2019-05-04T01:34:38.273Z,2.43
2019-05-04T01:37:28.928Z,2.07
2019-05-04T01:39:55.277Z,2.37
2019-05-04T01:42:24.398Z,2.93
2019-05-04T01:44:54.732Z,2.43
2019-05-04T01:47:23.052Z,2.53
2019-05-04T01:49:51.637Z,2.00
2019-05-04T01:52:21.149Z,2.30
2019-05-04T01:54:49.581Z,1.77
2019-05-04T01:57:25.784Z,2.00
2019-05-04T01:59:55.939Z,2.37
2019-05-04T02:02:26.473Z,2.63
2019-05-04T02:04:55.551Z,2.57
2019-05-04T02:07:25.352Z,2.10
2019-05-04T02:09:55.054Z,2.83
2019-05-04T02:12:25.667Z,2.13
2019-05-04T02:14:54.907Z,4.77
2019-05-04T02:17:26.683Z,2.00
2019-05-04T02:19:55.727Z,2.20
2019-05-04T02:22:28.785Z,2.70
2019-05-04T02:24:58.877Z,1.60
2019-05-04T02:27:31.542Z,1.40
2019-05-04T02:30:01.702Z,1.13
2019-05-04T02:32:31.799Z,1.47
2019-05-04T02:35:00.323Z,1.50
2019-05-04T02:37:28.827Z,1.53
2019-05-04T02:39:57.255Z,1.10
2019-05-04T02:42:25.701Z,1.67
2019-05-04T02:44:56.010Z,1.60
2019-05-04T02:47:45.191Z,1.47
2019-05-04T02:50:16.065Z,0.80
2019-05-04T02:52:46.170Z,1.40
2019-05-04T02:55:15.658Z,1.33
2019-05-04T02:57:45.595Z,1.47
2019-05-04T03:00:16.018Z,1.53
2019-05-04T03:02:45.637Z,1.33
2019-05-04T03:05:15.779Z,1.40
2019-05-04T03:07:46.371Z,1.60
2019-05-04T03:10:16.491Z,1.50
2019-05-04T03:12:45.999Z,1.33
2019-05-04T03:15:15.971Z,1.60
2019-05-04T03:17:52.167Z,1.73
2019-05-04T03:20:25.593Z,2.10
2019-05-04T03:22:56.446Z,2.30
2019-05-04T03:25:25.914Z,2.80
2019-05-04T03:27:56.277Z,2.37
2019-05-04T03:30:28.050Z,2.17
2019-05-04T03:32:58.439Z,2.70
2019-05-04T03:35:42.084Z,2.40
2019-05-04T03:37:57.122Z,2.97
2019-05-04T03:40:26.267Z,3.57
2019-05-04T03:42:55.546Z,2.60
2019-05-04T03:45:45.312Z,2.90
2019-05-04T03:48:16.074Z,3.13
2019-05-04T03:50:55.365Z,2.30
2019-05-04T03:53:25.416Z,2.83
2019-05-04T03:55:56.228Z,2.70
2019-05-04T03:58:25.421Z,2.10
2019-05-04T04:00:55.441Z,2.10
2019-05-04T04:03:26.452Z,2.20
2019-05-04T04:05:55.937Z,2.33
2019-05-04T04:08:25.052Z,2.20
2019-05-04T04:10:56.068Z,2.30
2019-05-04T04:13:25.988Z,3.07
2019-05-04T04:15:56.197Z,2.57
2019-05-04T04:18:26.464Z,2.67
2019-05-04T04:20:59.249Z,3.20
2019-05-04T04:23:46.809Z,1.97
2019-05-04T04:26:25.773Z,2.30
2019-05-04T04:28:55.733Z,2.87
2019-05-04T04:31:26.098Z,2.63
2019-05-04T04:34:00.741Z,2.37
2019-05-04T04:36:25.764Z,2.20
2019-05-04T04:38:56.762Z,2.03
2019-05-04T04:41:25.364Z,1.60
2019-05-04T04:43:56.290Z,0.93
2019-05-04T04:46:25.617Z,1.77
2019-05-04T04:48:55.656Z,1.30
2019-05-04T04:51:26.560Z,1.70
2019-05-04T04:53:56.132Z,1.77
2019-05-04T04:56:26.870Z,2.30
2019-05-04T04:58:57.005Z,2.03
2019-05-04T05:01:27.066Z,2.30
2019-05-04T05:03:55.590Z,2.30
2019-05-04T05:06:25.866Z,2.53
2019-05-04T05:08:55.599Z,2.70
2019-05-04T05:11:25.661Z,2.90
2019-05-04T05:13:55.025Z,3.63
2019-05-04T05:16:25.405Z,2.27
2019-05-04T05:18:54.276Z,2.60
2019-05-04T05:21:27.357Z,2.70
2019-05-04T05:23:55.797Z,3.27
2019-05-04T05:26:24.931Z,2.93
2019-05-04T05:28:55.574Z,3.27
2019-05-04T05:31:30.896Z,2.97
2019-05-04T05:34:00.965Z,2.60
2019-05-04T05:36:32.454Z,3.00
2019-05-04T05:39:00.885Z,2.67
2019-05-04T05:41:30.900Z,2.70
2019-05-04T05:43:59.769Z,3.50
2019-05-04T05:46:34.321Z,3.03
2019-05-04T05:49:15.177Z,2.17
2019-05-04T05:51:48.639Z,2.63
2019-05-04T05:54:19.656Z,2.03
2019-05-04T05:56:49.719Z,1.87
2019-05-04T05:59:27.955Z,1.57
2019-05-04T06:02:00.301Z,1.90
2019-05-04T06:04:29.110Z,1.53
2019-05-04T06:07:01.630Z,2.10
2019-05-04T06:09:30.730Z,1.70
2019-05-04T06:12:00.863Z,1.13
2019-05-04T06:14:35.283Z,1.90
2019-05-04T06:17:08.357Z,2.47
2019-05-04T06:19:39.721Z,1.67
2019-05-04T06:22:17.032Z,2.10
2019-05-04T06:24:42.061Z,1.60
2019-05-04T06:27:14.250Z,2.00
2019-05-04T06:29:48.180Z,1.60
2019-05-04T06:32:19.325Z,2.23
2019-05-04T06:34:50.530Z,2.37
2019-05-04T06:37:25.060Z,2.53
2019-05-04T06:40:00.196Z,2.23
2019-05-04T06:42:34.478Z,2.47
2019-05-04T06:45:14.328Z,2.93
2019-05-04T06:47:43.631Z,1.60
2019-05-04T06:50:15.392Z,1.50
2019-05-04T06:52:45.711Z,2.27
2019-05-04T06:55:21.761Z,2.30
2019-05-04T06:58:07.101Z,1.83
2019-05-04T07:00:40.719Z,1.83
2019-05-04T07:03:09.619Z,2.50
2019-05-04T07:05:37.546Z,1.10
2019-05-04T07:08:09.382Z,1.13
2019-05-04T07:10:50.782Z,1.30
2019-05-04T07:13:09.217Z,1.10
2019-05-04T07:15:36.738Z,1.57
2019-05-04T07:18:06.362Z,2.40
2019-05-04T07:20:54.868Z,0.93
2019-05-04T07:23:24.762Z,1.30
2019-05-04T07:25:58.247Z,1.30
2019-05-04T07:28:27.818Z,1.10
2019-05-04T07:30:58.494Z,1.63
2019-05-04T07:33:31.741Z,1.10
2019-05-04T07:36:17.020Z,1.00
2019-05-04T07:38:50.916Z,1.13
2019-05-04T07:41:39.742Z,1.00
2019-05-04T07:43:49.379Z,2.03
2019-05-04T07:46:18.101Z,1.77
2019-05-04T07:48:48.995Z,1.67
2019-05-04T07:51:16.858Z,1.50
2019-05-04T07:53:46.733Z,2.30
2019-05-04T07:56:15.429Z,1.40
2019-05-04T07:58:47.924Z,1.93
2019-05-04T08:01:14.346Z,1.63
2019-05-04T08:03:43.153Z,1.73
2019-05-04T08:06:15.703Z,1.60
2019-05-04T08:08:56.382Z,1.70
2019-05-04T08:11:16.422Z,1.00
2019-05-04T08:13:45.248Z,1.63
2019-05-04T08:16:17.419Z,1.20
2019-05-04T08:18:45.311Z,1.50
2019-05-04T08:21:15.698Z,1.53
2019-05-04T08:23:44.558Z,1.87
2019-05-04T08:26:14.780Z,1.77
2019-05-04T08:28:44.604Z,1.80
2019-05-04T08:31:15.090Z,1.90
2019-05-04T08:33:45.125Z,1.73
2019-05-04T08:36:16.568Z,1.83
2019-05-04T08:38:49.059Z,1.40
2019-05-04T08:41:14.837Z,1.50
2019-05-04T08:43:47.693Z,1.47
2019-05-04T08:46:20.849Z,1.50
2019-05-04T08:48:49.287Z,1.67
2019-05-04T08:51:20.518Z,1.40
2019-05-04T08:53:51.173Z,1.50
2019-05-04T08:56:22.859Z,1.63
2019-05-04T08:59:08.769Z,1.80
2019-05-04T09:01:54.381Z,1.40
2019-05-04T09:04:27.845Z,2.07
2019-05-04T09:07:03.382Z,1.20
2019-05-04T09:09:26.611Z,1.53
2019-05-04T09:11:54.342Z,1.30
2019-05-04T09:14:31.422Z,1.40
2019-05-04T09:16:54.765Z,0.80
2019-05-04T09:19:24.858Z,1.20
2019-05-04T09:22:16.462Z,1.33
2019-05-04T09:24:25.080Z,1.70
2019-05-04T09:26:54.674Z,1.40
2019-05-04T09:29:30.129Z,1.00
2019-05-04T09:31:54.663Z,1.00
2019-05-04T09:34:26.442Z,0.70
2019-05-04T09:36:55.127Z,1.37
2019-05-04T09:39:27.031Z,1.13
2019-05-04T09:42:05.829Z,1.37
2019-05-04T09:44:34.578Z,1.30
2019-05-04T09:47:04.755Z,1.00
2019-05-04T09:49:34.805Z,1.23
2019-05-04T09:52:10.130Z,0.97
2019-05-04T09:54:37.883Z,1.10
2019-05-04T09:57:06.341Z,1.03
2019-05-04T09:59:46.630Z,1.80
2019-05-04T10:02:05.751Z,1.03
2019-05-04T10:04:35.353Z,1.87
2019-05-04T10:07:04.827Z,1.10
2019-05-04T10:09:34.312Z,0.90
2019-05-04T10:12:04.850Z,1.47
2019-05-04T10:14:37.681Z,1.00
2019-05-04T10:17:07.757Z,1.00
2019-05-04T10:19:36.177Z,1.30
2019-05-04T10:22:05.741Z,0.70
2019-05-04T10:24:45.385Z,0.87
2019-05-04T10:27:21.251Z,0.87
2019-05-04T10:29:49.665Z,0.80
2019-05-04T10:32:18.111Z,0.70
2019-05-04T10:34:46.555Z,0.80
2019-05-04T10:37:15.214Z,1.17
2019-05-04T10:39:45.092Z,0.80
2019-05-04T10:42:15.042Z,0.80
2019-05-04T10:44:45.263Z,0.97
2019-05-04T10:47:14.329Z,0.93
2019-05-04T10:49:44.545Z,1.20
2019-05-04T10:52:13.390Z,0.70
2019-05-04T10:54:41.875Z,1.23
2019-05-04T10:57:10.313Z,1.07
2019-05-04T10:59:38.738Z,1.67
2019-05-04T11:02:07.162Z,1.63
2019-05-04T11:04:35.865Z,1.40
2019-05-04T11:07:05.428Z,1.33
2019-05-04T11:09:35.148Z,1.03
2019-05-04T11:12:05.061Z,0.77
2019-05-04T11:14:34.862Z,0.93
2019-05-04T11:17:04.720Z,1.20
2019-05-04T11:19:34.744Z,1.00
2019-05-04T11:22:06.494Z,1.07
2019-05-04T11:24:35.621Z,0.97
2019-05-04T11:27:08.781Z,0.90
2019-05-04T11:29:37.221Z,1.60
2019-05-04T11:32:05.650Z,1.50
2019-05-04T11:34:34.320Z,1.10
2019-05-04T11:37:04.906Z,0.87
2019-05-04T11:39:34.647Z,1.23
2019-05-04T11:42:05.071Z,1.80
2019-05-04T11:44:33.458Z,1.37
2019-05-04T11:47:02.080Z,1.40
2019-05-04T11:49:30.507Z,1.17
2019-05-04T11:51:58.931Z,0.90
2019-05-04T11:54:27.374Z,1.63
2019-05-04T11:56:55.785Z,1.30
2019-05-04T11:59:25.861Z,1.13
2019-05-04T12:01:54.840Z,0.90
2019-05-04T12:04:41.364Z,1.03
2019-05-04T12:07:11.421Z,1.70
2019-05-04T12:09:41.494Z,1.10
2019-05-04T12:12:09.918Z,1.27
2019-05-04T12:14:38.349Z,1.00
2019-05-04T12:17:06.798Z,1.60
2019-05-04T12:19:35.225Z,0.83
2019-05-04T12:22:04.562Z,1.10
2019-05-04T12:24:34.992Z,3.73
2019-05-04T12:27:04.290Z,1.20
2019-05-04T12:29:34.875Z,1.20
2019-05-04T12:32:05.219Z,1.10
2019-05-04T12:34:34.271Z,1.00
2019-05-04T12:37:02.969Z,1.60
2019-05-04T12:39:35.045Z,1.33
2019-05-04T12:42:04.392Z,1.07
2019-05-04T12:44:33.069Z,2.50
2019-05-04T12:47:04.321Z,1.10
2019-05-04T12:49:34.540Z,1.33
2019-05-04T12:52:04.816Z,1.33
2019-05-04T12:54:33.107Z,2.50
2019-05-04T12:57:01.544Z,1.37
2019-05-04T12:59:29.975Z,2.57
2019-05-04T13:01:58.411Z,1.70
2019-05-04T13:04:26.821Z,2.50
2019-05-04T13:06:55.516Z,2.00
2019-05-04T13:09:24.164Z,1.80
2019-05-04T13:11:54.846Z,1.63
2019-05-04T13:14:25.006Z,1.40
2019-05-04T13:16:52.907Z,1.20
2019-05-04T13:19:21.353Z,1.40
2019-05-04T13:21:49.788Z,2.20
2019-05-04T13:24:18.205Z,2.80
2019-05-04T13:26:46.638Z,1.93
2019-05-04T13:29:15.056Z,1.60
2019-05-04T13:31:44.585Z,0.90
2019-05-04T13:34:14.712Z,1.47
2019-05-04T13:36:45.335Z,1.20
2019-05-04T13:39:16.285Z,1.50
2019-05-04T13:41:45.016Z,1.30
2019-05-04T13:44:27.838Z,1.00
2019-05-04T13:46:44.463Z,1.80
2019-05-04T13:49:14.796Z,1.13
2019-05-04T13:51:45.288Z,0.93
2019-05-04T13:54:16.740Z,0.90
2019-05-04T13:56:51.143Z,0.60
2019-05-04T13:59:21.738Z,0.90
2019-05-04T14:01:51.786Z,1.03
2019-05-04T14:04:21.873Z,0.60
2019-05-04T14:06:50.637Z,1.03
2019-05-04T14:09:19.078Z,0.70
2019-05-04T14:11:47.556Z,1.20
2019-05-04T14:14:15.998Z,0.90
2019-05-04T14:16:44.869Z,0.53
2019-05-04T14:19:13.513Z,2.90
2019-05-04T14:21:41.947Z,0.70
2019-05-04T14:24:10.454Z,0.70
2019-05-04T14:26:38.881Z,0.87
2019-05-04T14:29:07.326Z,0.50
2019-05-04T14:31:36.022Z,1.10
2019-05-04T14:34:07.493Z,1.13
2019-05-04T14:36:34.824Z,0.93
2019-05-04T14:39:05.701Z,3.23
2019-05-04T14:41:34.253Z,1.07
2019-05-04T14:44:04.437Z,0.93
2019-05-04T14:46:36.881Z,1.50
2019-05-04T14:49:06.378Z,1.00
2019-05-04T14:51:34.820Z,0.90
2019-05-04T14:54:04.578Z,0.67
2019-05-04T14:56:34.978Z,0.80
2019-05-04T14:59:05.079Z,0.83
2019-05-04T15:01:34.461Z,0.77
2019-05-04T15:04:04.030Z,0.60
2019-05-04T15:06:32.474Z,0.70
2019-05-04T15:09:01.021Z,1.00
2019-05-04T15:11:29.440Z,0.67
2019-05-04T15:13:57.874Z,0.80
2019-05-04T15:16:26.298Z,0.60
2019-05-04T15:18:58.789Z,0.80
2019-05-04T15:21:27.218Z,0.70
2019-05-04T15:23:58.028Z,0.90
2019-05-04T15:26:26.479Z,0.60
2019-05-04T15:28:55.340Z,0.77
2019-05-04T15:31:24.594Z,2.60
2019-05-04T15:33:54.643Z,0.60
2019-05-04T15:36:24.744Z,0.97
2019-05-04T15:38:55.253Z,0.80
2019-05-04T15:41:24.250Z,0.80
2019-05-04T15:43:54.794Z,1.10
2019-05-04T15:46:35.429Z,1.27
2019-05-04T15:49:03.860Z,0.87
2019-05-04T15:51:36.840Z,1.00
2019-05-04T15:54:06.915Z,2.07
2019-05-04T15:56:39.775Z,1.13
2019-05-04T15:59:25.229Z,1.03
2019-05-04T16:01:55.039Z,1.50
2019-05-04T16:04:25.525Z,1.37
2019-05-04T16:06:54.441Z,1.03
2019-05-04T16:09:25.151Z,1.13
2019-05-04T16:11:54.875Z,1.27
2019-05-04T16:14:25.321Z,1.00
2019-05-04T16:16:54.134Z,1.47
2019-05-04T16:19:24.437Z,1.33
2019-05-04T16:21:52.731Z,1.33
2019-05-04T16:24:21.149Z,1.40
2019-05-04T16:26:49.590Z,8.60
2019-05-04T16:29:18.014Z,1.50
2019-05-04T16:31:46.452Z,1.77
2019-05-04T16:34:14.969Z,1.73
2019-05-04T16:36:44.885Z,1.50
2019-05-04T16:39:13.711Z,3.50
2019-05-04T16:41:44.330Z,1.40
2019-05-04T16:44:12.414Z,1.27
2019-05-04T16:46:40.846Z,1.40
2019-05-04T16:49:09.270Z,2.40
2019-05-04T16:51:39.358Z,3.37
2019-05-04T16:54:07.785Z,1.67
2019-05-04T16:56:37.975Z,2.53
2019-05-04T16:59:06.510Z,1.20
2019-05-04T17:01:49.228Z,1.03
2019-05-04T17:04:28.359Z,1.57
2019-05-04T17:06:56.864Z,1.00
2019-05-04T17:09:25.302Z,0.97
2019-05-04T17:11:55.412Z,1.27
2019-05-04T17:14:25.174Z,1.37
2019-05-04T17:16:54.808Z,1.20
2019-05-04T17:19:25.258Z,1.23
2019-05-04T17:22:07.056Z,1.73
2019-05-04T17:24:38.739Z,1.57
2019-05-04T17:27:08.807Z,2.20
2019-05-04T17:29:37.610Z,1.30
2019-05-04T17:32:06.762Z,1.60
2019-05-04T17:34:35.637Z,1.67
2019-05-04T17:37:04.803Z,2.27
2019-05-04T17:39:34.867Z,1.93
2019-05-04T17:42:08.336Z,1.67
2019-05-04T17:44:41.278Z,1.80
2019-05-04T17:47:09.735Z,1.47
2019-05-04T17:49:38.171Z,5.93
2019-05-04T17:52:06.627Z,1.83
2019-05-04T17:54:35.089Z,1.80
2019-05-04T17:57:03.608Z,1.47
2019-05-04T17:59:34.482Z,1.27
2019-05-04T18:02:05.279Z,1.63
2019-05-04T18:04:35.670Z,1.60
2019-05-04T18:07:05.159Z,1.73
2019-05-04T18:09:34.738Z,1.70
2019-05-04T18:12:05.367Z,2.40
2019-05-04T18:14:50.360Z,2.80
2019-05-04T18:17:22.702Z,1.40
2019-05-04T18:19:50.658Z,1.77
2019-05-04T18:22:19.075Z,1.50
2019-05-04T18:24:47.776Z,2.00
2019-05-04T18:27:17.752Z,1.13
2019-05-04T18:29:46.249Z,1.80
2019-05-04T18:32:14.878Z,1.83
2019-05-04T18:34:44.384Z,1.83
2019-05-04T18:37:14.757Z,2.00
2019-05-04T18:39:44.915Z,2.10
2019-05-04T18:42:14.937Z,1.50
2019-05-04T18:44:47.686Z,2.20
2019-05-04T18:47:20.738Z,1.83
2019-05-04T18:49:49.170Z,1.87
2019-05-04T18:52:17.593Z,1.67
2019-05-04T18:54:46.031Z,1.67
2019-05-04T18:57:15.541Z,2.20
2019-05-04T18:59:45.235Z,1.53
2019-05-04T19:02:14.294Z,2.57
2019-05-04T19:04:44.680Z,1.73
2019-05-04T19:07:14.957Z,3.20
2019-05-04T19:09:48.039Z,2.90
2019-05-04T19:12:16.469Z,2.37
2019-05-04T19:14:45.228Z,2.40
2019-05-04T19:17:14.910Z,2.80
2019-05-04T19:19:45.569Z,2.80
2019-05-04T19:22:14.733Z,1.83
2019-05-04T19:24:45.489Z,2.20
2019-05-04T19:27:14.333Z,1.77
2019-05-04T19:29:44.835Z,1.70
2019-05-04T19:32:15.275Z,2.20
2019-05-04T19:34:46.157Z,2.13
2019-05-04T19:37:15.278Z,2.30
2019-05-04T19:39:45.781Z,2.83
2019-05-04T19:42:18.669Z,2.00
2019-05-04T19:44:51.651Z,2.30
2019-05-04T19:47:23.382Z,3.30
2019-05-04T19:49:50.236Z,3.30
2019-05-04T19:52:18.697Z,3.37
2019-05-04T19:54:47.118Z,2.83
2019-05-04T19:57:16.092Z,2.77
2019-05-04T19:59:44.934Z,2.90
2019-05-04T20:02:14.491Z,4.83
2019-05-04T20:04:45.174Z,2.90
2019-05-04T20:07:14.730Z,4.33
2019-05-04T20:09:44.793Z,3.00
2019-05-04T20:12:20.772Z,2.20
2019-05-04T20:15:14.986Z,2.53
2019-05-04T20:17:19.429Z,2.33
2019-05-04T20:19:47.840Z,2.43
2019-05-04T20:22:16.275Z,3.03
2019-05-04T20:24:45.627Z,2.30
2019-05-04T20:27:14.802Z,3.47
2019-05-04T20:29:45.170Z,2.93
2019-05-04T20:32:14.921Z,3.10
2019-05-04T20:34:44.938Z,3.10
2019-05-04T20:37:15.596Z,3.10
2019-05-04T20:39:45.504Z,3.57
2019-05-04T20:42:15.637Z,3.90
2019-05-04T20:44:46.121Z,4.60
2019-05-04T20:47:21.942Z,2.57
2019-05-04T20:49:51.993Z,3.17
2019-05-04T20:52:22.066Z,3.00
2019-05-04T20:54:50.490Z,3.37
2019-05-04T20:57:18.918Z,3.43
2019-05-04T20:59:47.347Z,3.50
2019-05-04T21:02:17.433Z,2.90
2019-05-04T21:05:03.828Z,3.47
2019-05-04T21:07:34.024Z,2.73
2019-05-04T21:10:02.637Z,3.13
2019-05-04T21:12:31.098Z,2.73
2019-05-04T21:14:59.575Z,3.00
2019-05-04T21:17:29.650Z,3.37
2019-05-04T21:19:59.729Z,3.30
2019-05-04T21:22:38.745Z,3.30
2019-05-04T21:25:07.855Z,2.70
2019-05-04T21:27:36.331Z,4.67
2019-05-04T21:30:06.872Z,2.90
2019-05-04T21:32:35.325Z,3.07
2019-05-04T21:35:05.784Z,3.03
2019-05-04T21:37:35.132Z,2.97
2019-05-04T21:40:10.359Z,3.67
2019-05-04T21:42:37.635Z,4.10
2019-05-04T21:45:18.142Z,3.20
2019-05-04T21:48:17.431Z,3.53
2019-05-04T21:50:40.541Z,3.47
2019-05-04T21:53:08.962Z,3.33
2019-05-04T21:55:37.385Z,3.40
2019-05-04T21:58:05.806Z,4.13
2019-05-04T22:00:45.312Z,2.93
2019-05-04T22:03:21.587Z,3.17
2019-05-04T22:05:50.009Z,3.50
2019-05-04T22:08:18.461Z,2.50
2019-05-04T22:10:46.905Z,3.83
2019-05-04T22:13:15.383Z,4.27
2019-05-04T22:15:45.060Z,3.50
2019-05-04T22:18:16.233Z,3.67
2019-05-04T22:20:43.779Z,3.60
2019-05-04T22:23:12.238Z,3.40
2019-05-04T22:25:40.997Z,3.50
2019-05-04T22:28:09.409Z,2.60
2019-05-04T22:30:37.864Z,3.47
2019-05-04T22:33:06.293Z,4.17
2019-05-04T22:35:34.729Z,3.73
2019-05-04T22:38:10.801Z,3.23
2019-05-04T22:40:39.229Z,3.53
2019-05-04T22:43:10.018Z,3.43
2019-05-04T22:45:38.445Z,2.60
2019-05-04T22:48:06.950Z,2.90
2019-05-04T22:50:35.481Z,3.07
2019-05-04T22:53:20.674Z,2.90
2019-05-04T22:55:53.425Z,2.70
2019-05-04T22:58:35.742Z,3.20
2019-05-04T23:01:11.473Z,3.57
2019-05-04T23:03:50.282Z,3.30
2019-05-04T23:06:19.144Z,3.20
2019-05-04T23:08:47.605Z,2.97
2019-05-04T23:11:16.111Z,3.93
2019-05-04T23:13:44.542Z,5.43
2019-05-04T23:16:14.857Z,5.90
2019-05-04T23:18:44.941Z,4.50
2019-05-04T23:21:15.123Z,4.00
2019-05-04T23:23:44.346Z,4.27
2019-05-04T23:26:14.932Z,3.83
2019-05-04T23:28:45.357Z,3.23
2019-05-04T23:31:16.162Z,3.67
2019-05-04T23:33:44.911Z,3.30
2019-05-04T23:36:15.111Z,3.73
2019-05-04T23:38:44.364Z,4.53
2019-05-04T23:41:13.062Z,3.40
2019-05-04T23:43:41.477Z,3.53
2019-05-04T23:46:10.781Z,4.30
2019-05-04T23:48:39.286Z,3.50
2019-05-04T23:51:07.717Z,4.77
2019-05-04T23:53:36.144Z,4.57
2019-05-04T23:56:06.821Z,3.70
2019-05-04T23:58:42.868Z,3.90
